sensor_id;sensor_type;location;lat;lon;timestamp;temperature;humidity
3037;DHT22;1528;52.550;13.408;2023-04-15T00:02:14;10.90;49.40
3037;DHT22;1528;52.550;13.408;2023-04-15T00:05:01;10.60;50.30
3037;DHT22;1528;52.550;13.408;2023-04-15T00:07:46;10.60;49.80
3037;DHT22;1528;52.550;13.408;2023-04-15T00:10:33;10.60;50.20
3037;DHT22;1528;52.550;13.408;2023-04-15T00:13:18;10.80;50.10
3037;DHT22;1528;52.550;13.408;2023-04-15T00:16:05;10.60;50.60
3037;DHT22;1528;52.550;13.408;2023-04-15T00:18:51;10.60;50.40
3037;DHT22;1528;52.550;13.408;2023-04-15T00:21:36;10.80;49.70
3037;DHT22;1528;52.550;13.408;2023-04-15T00:24:22;10.70;49.70
3037;DHT22;1528;52.550;13.408;2023-04-15T00:27:10;10.70;50.10
3037;DHT22;1528;52.550;13.408;2023-04-15T00:29:55;10.70;49.70
3037;DHT22;1528;52.550;13.408;2023-04-15T00:32:41;10.60;49.50
3037;DHT22;1528;52.550;13.408;2023-04-15T00:35:26;10.60;50.50
3037;DHT22;1528;52.550;13.408;2023-04-15T00:38:12;10.70;50.30
3037;DHT22;1528;52.550;13.408;2023-04-15T00:40:58;10.70;50.10
3037;DHT22;1528;52.550;13.408;2023-04-15T00:43:45;10.70;49.90
3037;DHT22;1528;52.550;13.408;2023-04-15T00:46:32;10.80;49.30
3037;DHT22;1528;52.550;13.408;2023-04-15T00:49:19;10.70;49.50
3037;DHT22;1528;52.550;13.408;2023-04-15T00:52:05;10.70;50.00
3037;DHT22;1528;52.550;13.408;2023-04-15T00:54:52;10.60;50.00
3037;DHT22;1528;52.550;13.408;2023-04-15T00:57:38;10.60;50.00
3037;DHT22;1528;52.550;13.408;2023-04-15T01:00:25;10.70;49.90
3037;DHT22;1528;52.550;13.408;2023-04-15T01:03:12;10.70;49.70
3037;DHT22;1528;52.550;13.408;2023-04-15T01:05:59;10.70;49.20
3037;DHT22;1528;52.550;13.408;2023-04-15T01:08:44;10.70;49.50
3037;DHT22;1528;52.550;13.408;2023-04-15T01:11:31;10.70;49.70
3037;DHT22;1528;52.550;13.408;2023-04-15T01:14:17;10.70;49.40
3037;DHT22;1528;52.550;13.408;2023-04-15T01:17:04;10.70;48.90
3037;DHT22;1528;52.550;13.408;2023-04-15T01:19:50;10.70;48.70
3037;DHT22;1528;52.550;13.408;2023-04-15T01:22:37;10.70;49.00
3037;DHT22;1528;52.550;13.408;2023-04-15T01:25:30;10.80;49.80
3037;DHT22;1528;52.550;13.408;2023-04-15T01:28:17;10.70;49.10
3037;DHT22;1528;52.550;13.408;2023-04-15T01:31:07;10.70;49.10
3037;DHT22;1528;52.550;13.408;2023-04-15T01:33:53;10.70;49.10
3037;DHT22;1528;52.550;13.408;2023-04-15T01:36:39;10.70;49.10
3037;DHT22;1528;52.550;13.408;2023-04-15T01:39:25;10.70;49.10
3037;DHT22;1528;52.550;13.408;2023-04-15T01:42:12;10.50;49.00
3037;DHT22;1528;52.550;13.408;2023-04-15T01:44:57;10.60;49.80
3037;DHT22;1528;52.550;13.408;2023-04-15T01:47:43;10.60;49.00
3037;DHT22;1528;52.550;13.408;2023-04-15T01:50:28;10.60;49.00
3037;DHT22;1528;52.550;13.408;2023-04-15T01:53:14;10.60;49.00
3037;DHT22;1528;52.550;13.408;2023-04-15T01:56:00;10.70;48.60
3037;DHT22;1528;52.550;13.408;2023-04-15T01:58:46;10.70;48.40
3037;DHT22;1528;52.550;13.408;2023-04-15T02:01:33;10.80;49.00
3037;DHT22;1528;52.550;13.408;2023-04-15T02:04:18;10.60;49.10
3037;DHT22;1528;52.550;13.408;2023-04-15T02:07:04;10.70;48.90
3037;DHT22;1528;52.550;13.408;2023-04-15T02:09:50;10.70;49.10
3037;DHT22;1528;52.550;13.408;2023-04-15T02:12:36;10.70;49.10
3037;DHT22;1528;52.550;13.408;2023-04-15T02:15:23;10.70;48.80
3037;DHT22;1528;52.550;13.408;2023-04-15T02:18:08;10.70;49.10
3037;DHT22;1528;52.550;13.408;2023-04-15T02:20:54;10.70;49.80
3037;DHT22;1528;52.550;13.408;2023-04-15T02:23:41;10.70;49.90
3037;DHT22;1528;52.550;13.408;2023-04-15T02:26:27;10.70;49.30
3037;DHT22;1528;52.550;13.408;2023-04-15T02:29:15;10.80;49.80
3037;DHT22;1528;52.550;13.408;2023-04-15T02:32:02;10.70;49.50
3037;DHT22;1528;52.550;13.408;2023-04-15T02:34:48;10.70;49.30
3037;DHT22;1528;52.550;13.408;2023-04-15T02:37:35;10.70;49.30
3037;DHT22;1528;52.550;13.408;2023-04-15T02:40:24;10.80;48.90
3037;DHT22;1528;52.550;13.408;2023-04-15T02:43:10;10.80;49.10
3037;DHT22;1528;52.550;13.408;2023-04-15T02:45:56;10.80;48.90
3037;DHT22;1528;52.550;13.408;2023-04-15T02:48:43;10.70;49.10
3037;DHT22;1528;52.550;13.408;2023-04-15T02:51:29;10.60;49.20
3037;DHT22;1528;52.550;13.408;2023-04-15T02:54:16;10.60;49.40
3037;DHT22;1528;52.550;13.408;2023-04-15T02:57:02;10.70;49.10
3037;DHT22;1528;52.550;13.408;2023-04-15T02:59:49;10.70;49.10
3037;DHT22;1528;52.550;13.408;2023-04-15T03:02:35;10.70;49.10
3037;DHT22;1528;52.550;13.408;2023-04-15T03:05:23;10.60;49.50
3037;DHT22;1528;52.550;13.408;2023-04-15T03:08:09;10.80;48.70
3037;DHT22;1528;52.550;13.408;2023-04-15T03:10:55;10.80;49.10
3037;DHT22;1528;52.550;13.408;2023-04-15T03:13:44;10.70;49.10
3037;DHT22;1528;52.550;13.408;2023-04-15T03:16:29;10.70;49.10
3037;DHT22;1528;52.550;13.408;2023-04-15T03:19:15;10.80;48.90
3037;DHT22;1528;52.550;13.408;2023-04-15T03:22:02;10.70;49.10
3037;DHT22;1528;52.550;13.408;2023-04-15T03:24:47;10.70;49.10
3037;DHT22;1528;52.550;13.408;2023-04-15T03:27:33;10.70;49.10
3037;DHT22;1528;52.550;13.408;2023-04-15T03:30:18;10.70;49.60
3037;DHT22;1528;52.550;13.408;2023-04-15T03:33:04;10.80;49.20
3037;DHT22;1528;52.550;13.408;2023-04-15T03:35:50;10.80;49.10
3037;DHT22;1528;52.550;13.408;2023-04-15T03:38:38;10.80;49.10
3037;DHT22;1528;52.550;13.408;2023-04-15T03:41:23;10.70;49.30
3037;DHT22;1528;52.550;13.408;2023-04-15T03:44:09;10.80;49.40
3037;DHT22;1528;52.550;13.408;2023-04-15T03:46:55;10.80;49.40
3037;DHT22;1528;52.550;13.408;2023-04-15T03:49:41;10.90;49.50
3037;DHT22;1528;52.550;13.408;2023-04-15T03:52:26;10.90;49.20
3037;DHT22;1528;52.550;13.408;2023-04-15T03:55:14;10.90;49.10
3037;DHT22;1528;52.550;13.408;2023-04-15T03:58:00;10.90;48.90
3037;DHT22;1528;52.550;13.408;2023-04-15T04:00:45;10.90;48.70
3037;DHT22;1528;52.550;13.408;2023-04-15T04:03:31;10.90;48.80
3037;DHT22;1528;52.550;13.408;2023-04-15T04:06:17;10.90;49.10
3037;DHT22;1528;52.550;13.408;2023-04-15T04:09:03;10.80;49.10
3037;DHT22;1528;52.550;13.408;2023-04-15T04:11:49;10.90;49.20
3037;DHT22;1528;52.550;13.408;2023-04-15T04:14:35;10.90;49.20
3037;DHT22;1528;52.550;13.408;2023-04-15T04:17:20;10.90;49.20
3037;DHT22;1528;52.550;13.408;2023-04-15T04:20:08;11.00;49.00
3037;DHT22;1528;52.550;13.408;2023-04-15T04:22:53;11.00;48.70
3037;DHT22;1528;52.550;13.408;2023-04-15T04:25:39;10.90;48.80
3037;DHT22;1528;52.550;13.408;2023-04-15T04:28:26;11.00;49.10
3037;DHT22;1528;52.550;13.408;2023-04-15T04:31:12;11.00;49.30
3037;DHT22;1528;52.550;13.408;2023-04-15T04:33:57;10.90;49.20
3037;DHT22;1528;52.550;13.408;2023-04-15T04:36:43;10.90;49.20
3037;DHT22;1528;52.550;13.408;2023-04-15T04:39:28;10.80;49.10
3037;DHT22;1528;52.550;13.408;2023-04-15T04:42:14;10.80;49.40
3037;DHT22;1528;52.550;13.408;2023-04-15T04:45:01;10.80;49.70
3037;DHT22;1528;52.550;13.408;2023-04-15T04:47:47;10.90;49.40
3037;DHT22;1528;52.550;13.408;2023-04-15T04:50:32;11.00;49.20
3037;DHT22;1528;52.550;13.408;2023-04-15T04:53:18;11.00;49.70
3037;DHT22;1528;52.550;13.408;2023-04-15T04:56:04;11.00;49.30
3037;DHT22;1528;52.550;13.408;2023-04-15T04:58:49;11.10;49.00
3037;DHT22;1528;52.550;13.408;2023-04-15T05:01:36;11.00;48.80
3037;DHT22;1528;52.550;13.408;2023-04-15T05:04:22;11.10;49.40
3037;DHT22;1528;52.550;13.408;2023-04-15T05:07:07;11.00;49.70
3037;DHT22;1528;52.550;13.408;2023-04-15T05:09:53;11.10;49.90
3037;DHT22;1528;52.550;13.408;2023-04-15T05:12:39;11.20;49.10
3037;DHT22;1528;52.550;13.408;2023-04-15T05:15:25;11.50;48.70
3037;DHT22;1528;52.550;13.408;2023-04-15T05:18:12;11.20;48.60
3037;DHT22;1528;52.550;13.408;2023-04-15T05:20:58;11.20;48.90
3037;DHT22;1528;52.550;13.408;2023-04-15T05:23:44;11.20;49.00
3037;DHT22;1528;52.550;13.408;2023-04-15T05:26:29;11.30;48.60
3037;DHT22;1528;52.550;13.408;2023-04-15T05:29:15;11.30;48.30
3037;DHT22;1528;52.550;13.408;2023-04-15T05:32:00;11.40;48.10
3037;DHT22;1528;52.550;13.408;2023-04-15T05:34:47;11.40;48.20
3037;DHT22;1528;52.550;13.408;2023-04-15T05:37:33;11.20;48.30
3037;DHT22;1528;52.550;13.408;2023-04-15T05:40:19;11.30;49.10
3037;DHT22;1528;52.550;13.408;2023-04-15T05:43:05;11.30;48.00
3037;DHT22;1528;52.550;13.408;2023-04-15T05:45:50;11.40;48.80
3037;DHT22;1528;52.550;13.408;2023-04-15T05:48:36;11.30;48.40
3037;DHT22;1528;52.550;13.408;2023-04-15T05:51:23;11.30;48.70
3037;DHT22;1528;52.550;13.408;2023-04-15T05:54:09;11.20;48.40
3037;DHT22;1528;52.550;13.408;2023-04-15T05:56:55;11.30;49.10
3037;DHT22;1528;52.550;13.408;2023-04-15T05:59:40;11.40;48.80
3037;DHT22;1528;52.550;13.408;2023-04-15T06:02:26;11.60;48.20
3037;DHT22;1528;52.550;13.408;2023-04-15T06:05:11;11.70;47.00
3037;DHT22;1528;52.550;13.408;2023-04-15T06:07:58;11.90;47.30
3037;DHT22;1528;52.550;13.408;2023-04-15T06:10:44;11.80;47.10
3037;DHT22;1528;52.550;13.408;2023-04-15T06:13:30;12.00;46.40
3037;DHT22;1528;52.550;13.408;2023-04-15T06:16:16;12.20;46.40
3037;DHT22;1528;52.550;13.408;2023-04-15T06:19:01;12.10;45.70
3037;DHT22;1528;52.550;13.408;2023-04-15T06:21:47;12.30;45.80
3037;DHT22;1528;52.550;13.408;2023-04-15T06:24:34;12.40;45.40
3037;DHT22;1528;52.550;13.408;2023-04-15T06:27:20;12.30;45.00
3037;DHT22;1528;52.550;13.408;2023-04-15T06:30:07;12.30;45.50
3037;DHT22;1528;52.550;13.408;2023-04-15T06:32:54;12.40;45.40
3037;DHT22;1528;52.550;13.408;2023-04-15T06:35:40;12.50;45.00
3037;DHT22;1528;52.550;13.408;2023-04-15T06:38:25;12.50;45.10
3037;DHT22;1528;52.550;13.408;2023-04-15T06:41:13;12.80;43.80
3037;DHT22;1528;52.550;13.408;2023-04-15T06:43:58;12.70;43.40
3037;DHT22;1528;52.550;13.408;2023-04-15T06:46:44;12.80;43.80
3037;DHT22;1528;52.550;13.408;2023-04-15T06:49:30;12.70;43.70
3037;DHT22;1528;52.550;13.408;2023-04-15T06:52:16;12.80;43.90
3037;DHT22;1528;52.550;13.408;2023-04-15T06:55:03;12.70;42.90
3037;DHT22;1528;52.550;13.408;2023-04-15T06:57:50;12.60;43.80
3037;DHT22;1528;52.550;13.408;2023-04-15T07:00:35;12.80;43.60
3037;DHT22;1528;52.550;13.408;2023-04-15T07:03:22;12.70;43.90
3037;DHT22;1528;52.550;13.408;2023-04-15T07:06:08;12.80;42.70
3037;DHT22;1528;52.550;13.408;2023-04-15T07:08:54;12.70;43.00
3037;DHT22;1528;52.550;13.408;2023-04-15T07:11:41;13.00;42.60
3037;DHT22;1528;52.550;13.408;2023-04-15T07:14:28;13.00;41.30
3037;DHT22;1528;52.550;13.408;2023-04-15T07:17:14;13.20;42.10
3037;DHT22;1528;52.550;13.408;2023-04-15T07:19:59;13.30;41.20
3037;DHT22;1528;52.550;13.408;2023-04-15T07:22:45;13.40;40.30
3037;DHT22;1528;52.550;13.408;2023-04-15T07:25:31;13.40;40.60
3037;DHT22;1528;52.550;13.408;2023-04-15T07:28:16;13.30;41.10
3037;DHT22;1528;52.550;13.408;2023-04-15T07:31:04;13.40;40.90
3037;DHT22;1528;52.550;13.408;2023-04-15T07:33:49;13.40;41.40
3037;DHT22;1528;52.550;13.408;2023-04-15T07:36:35;13.40;41.50
3037;DHT22;1528;52.550;13.408;2023-04-15T07:39:21;13.40;41.90
3037;DHT22;1528;52.550;13.408;2023-04-15T07:42:06;13.40;42.20
3037;DHT22;1528;52.550;13.408;2023-04-15T07:44:53;13.60;42.30
3037;DHT22;1528;52.550;13.408;2023-04-15T07:47:40;13.60;41.30
3037;DHT22;1528;52.550;13.408;2023-04-15T07:50:25;13.60;40.10
3037;DHT22;1528;52.550;13.408;2023-04-15T07:53:11;13.60;41.00
3037;DHT22;1528;52.550;13.408;2023-04-15T07:55:57;13.60;40.40
3037;DHT22;1528;52.550;13.408;2023-04-15T07:58:43;13.40;39.80
3037;DHT22;1528;52.550;13.408;2023-04-15T08:01:29;13.20;41.90
3037;DHT22;1528;52.550;13.408;2023-04-15T08:04:17;13.30;41.90
3037;DHT22;1528;52.550;13.408;2023-04-15T08:07:03;13.30;41.20
3037;DHT22;1528;52.550;13.408;2023-04-15T08:09:49;13.20;41.30
3037;DHT22;1528;52.550;13.408;2023-04-15T08:12:35;13.00;41.80
3037;DHT22;1528;52.550;13.408;2023-04-15T08:15:21;13.00;41.40
3037;DHT22;1528;52.550;13.408;2023-04-15T08:18:06;13.00;41.60
3037;DHT22;1528;52.550;13.408;2023-04-15T08:20:54;13.20;40.70
3037;DHT22;1528;52.550;13.408;2023-04-15T08:23:39;13.20;40.90
3037;DHT22;1528;52.550;13.408;2023-04-15T08:26:25;13.30;40.20
3037;DHT22;1528;52.550;13.408;2023-04-15T08:29:11;13.20;40.90
3037;DHT22;1528;52.550;13.408;2023-04-15T08:31:58;13.20;40.60
3037;DHT22;1528;52.550;13.408;2023-04-15T08:34:44;13.20;42.20
3037;DHT22;1528;52.550;13.408;2023-04-15T08:37:31;13.20;40.70
3037;DHT22;1528;52.550;13.408;2023-04-15T08:40:17;13.30;40.20
3037;DHT22;1528;52.550;13.408;2023-04-15T08:43:03;13.30;41.30
3037;DHT22;1528;52.550;13.408;2023-04-15T08:45:50;13.40;40.80
3037;DHT22;1528;52.550;13.408;2023-04-15T08:48:37;13.40;41.40
3037;DHT22;1528;52.550;13.408;2023-04-15T08:51:27;13.50;40.80
3037;DHT22;1528;52.550;13.408;2023-04-15T08:54:14;13.50;40.30
3037;DHT22;1528;52.550;13.408;2023-04-15T08:57:00;13.50;40.60
3037;DHT22;1528;52.550;13.408;2023-04-15T08:59:47;13.30;40.90
3037;DHT22;1528;52.550;13.408;2023-04-15T09:02:32;13.10;41.40
3037;DHT22;1528;52.550;13.408;2023-04-15T09:05:18;13.20;41.30
3037;DHT22;1528;52.550;13.408;2023-04-15T09:08:04;13.20;42.30
3037;DHT22;1528;52.550;13.408;2023-04-15T09:10:52;13.30;41.70
3037;DHT22;1528;52.550;13.408;2023-04-15T09:13:38;13.40;41.30
3037;DHT22;1528;52.550;13.408;2023-04-15T09:16:24;13.30;42.10
3037;DHT22;1528;52.550;13.408;2023-04-15T09:19:20;13.30;41.60
3037;DHT22;1528;52.550;13.408;2023-04-15T09:22:06;13.40;41.10
3037;DHT22;1528;52.550;13.408;2023-04-15T09:24:51;13.40;40.60
3037;DHT22;1528;52.550;13.408;2023-04-15T09:27:47;13.50;40.80
3037;DHT22;1528;52.550;13.408;2023-04-15T09:30:33;13.50;40.70
3037;DHT22;1528;52.550;13.408;2023-04-15T09:33:19;13.40;41.80
3037;DHT22;1528;52.550;13.408;2023-04-15T09:36:05;13.30;40.20
3037;DHT22;1528;52.550;13.408;2023-04-15T09:38:55;13.40;40.30
3037;DHT22;1528;52.550;13.408;2023-04-15T09:41:40;13.40;40.80
3037;DHT22;1528;52.550;13.408;2023-04-15T09:44:28;13.50;41.00
3037;DHT22;1528;52.550;13.408;2023-04-15T09:47:26;13.60;40.30
3037;DHT22;1528;52.550;13.408;2023-04-15T09:50:12;13.50;42.90
3037;DHT22;1528;52.550;13.408;2023-04-15T09:52:58;13.60;40.90
3037;DHT22;1528;52.550;13.408;2023-04-15T09:55:50;13.50;41.80
3037;DHT22;1528;52.550;13.408;2023-04-15T09:58:35;13.30;42.40
3037;DHT22;1528;52.550;13.408;2023-04-15T10:01:23;13.40;43.10
3037;DHT22;1528;52.550;13.408;2023-04-15T10:04:09;13.50;42.30
3037;DHT22;1528;52.550;13.408;2023-04-15T10:06:55;13.50;41.50
3037;DHT22;1528;52.550;13.408;2023-04-15T10:09:42;13.40;42.40
3037;DHT22;1528;52.550;13.408;2023-04-15T10:12:30;13.60;41.50
3037;DHT22;1528;52.550;13.408;2023-04-15T10:15:17;13.50;41.60
3037;DHT22;1528;52.550;13.408;2023-04-15T10:18:04;13.40;42.00
3037;DHT22;1528;52.550;13.408;2023-04-15T10:20:51;13.40;43.60
3037;DHT22;1528;52.550;13.408;2023-04-15T10:23:38;13.50;42.40
3037;DHT22;1528;52.550;13.408;2023-04-15T10:26:24;13.50;42.30
3037;DHT22;1528;52.550;13.408;2023-04-15T10:29:09;13.40;42.80
3037;DHT22;1528;52.550;13.408;2023-04-15T10:31:55;13.20;43.50
3037;DHT22;1528;52.550;13.408;2023-04-15T10:34:43;13.40;43.60
3037;DHT22;1528;52.550;13.408;2023-04-15T10:37:35;13.40;43.10
3037;DHT22;1528;52.550;13.408;2023-04-15T10:40:25;13.50;43.20
3037;DHT22;1528;52.550;13.408;2023-04-15T10:43:24;13.40;44.20
3037;DHT22;1528;52.550;13.408;2023-04-15T10:46:09;13.60;44.60
3037;DHT22;1528;52.550;13.408;2023-04-15T10:48:55;13.70;43.30
3037;DHT22;1528;52.550;13.408;2023-04-15T10:51:43;13.60;44.20
3037;DHT22;1528;52.550;13.408;2023-04-15T10:54:32;13.70;44.20
3037;DHT22;1528;52.550;13.408;2023-04-15T10:57:22;13.70;43.90
3037;DHT22;1528;52.550;13.408;2023-04-15T11:00:12;13.90;43.50
3037;DHT22;1528;52.550;13.408;2023-04-15T11:03:04;13.70;44.40
3037;DHT22;1528;52.550;13.408;2023-04-15T11:05:51;13.80;42.70
3037;DHT22;1528;52.550;13.408;2023-04-15T11:08:56;13.90;43.40
3037;DHT22;1528;52.550;13.408;2023-04-15T11:12:04;14.00;42.70
3037;DHT22;1528;52.550;13.408;2023-04-15T11:14:51;13.80;43.90
3037;DHT22;1528;52.550;13.408;2023-04-15T11:17:37;13.70;42.80
3037;DHT22;1528;52.550;13.408;2023-04-15T11:20:23;13.70;42.80
3037;DHT22;1528;52.550;13.408;2023-04-15T11:23:08;13.60;43.90
3037;DHT22;1528;52.550;13.408;2023-04-15T11:25:55;13.60;44.40
3037;DHT22;1528;52.550;13.408;2023-04-15T11:28:42;13.50;44.10
3037;DHT22;1528;52.550;13.408;2023-04-15T11:31:29;13.40;43.80
3037;DHT22;1528;52.550;13.408;2023-04-15T11:34:21;13.40;44.60
3037;DHT22;1528;52.550;13.408;2023-04-15T11:37:07;13.50;43.90
3037;DHT22;1528;52.550;13.408;2023-04-15T11:39:53;13.60;43.60
3037;DHT22;1528;52.550;13.408;2023-04-15T11:42:41;13.60;43.30
3037;DHT22;1528;52.550;13.408;2023-04-15T11:45:26;13.70;44.10
3037;DHT22;1528;52.550;13.408;2023-04-15T11:48:12;13.40;44.10
3037;DHT22;1528;52.550;13.408;2023-04-15T11:51:00;13.30;44.70
3037;DHT22;1528;52.550;13.408;2023-04-15T11:53:47;13.40;44.20
3037;DHT22;1528;52.550;13.408;2023-04-15T11:56:33;13.40;44.80
3037;DHT22;1528;52.550;13.408;2023-04-15T11:59:20;13.40;44.40
3037;DHT22;1528;52.550;13.408;2023-04-15T12:02:11;13.30;45.70
3037;DHT22;1528;52.550;13.408;2023-04-15T12:05:02;13.40;45.80
3037;DHT22;1528;52.550;13.408;2023-04-15T12:07:57;13.50;45.40
3037;DHT22;1528;52.550;13.408;2023-04-15T12:10:43;13.50;45.90
3037;DHT22;1528;52.550;13.408;2023-04-15T12:13:29;13.60;45.00
3037;DHT22;1528;52.550;13.408;2023-04-15T12:16:17;13.50;46.50
3037;DHT22;1528;52.550;13.408;2023-04-15T12:19:05;13.30;46.20
3037;DHT22;1528;52.550;13.408;2023-04-15T12:21:56;13.50;47.10
3037;DHT22;1528;52.550;13.408;2023-04-15T12:24:43;13.50;46.50
3037;DHT22;1528;52.550;13.408;2023-04-15T12:27:30;13.60;47.00
3037;DHT22;1528;52.550;13.408;2023-04-15T12:30:16;13.50;46.50
3037;DHT22;1528;52.550;13.408;2023-04-15T12:33:03;13.60;47.10
3037;DHT22;1528;52.550;13.408;2023-04-15T12:35:49;13.60;46.20
3037;DHT22;1528;52.550;13.408;2023-04-15T12:38:34;13.80;47.40
3037;DHT22;1528;52.550;13.408;2023-04-15T12:41:20;14.00;46.70
3037;DHT22;1528;52.550;13.408;2023-04-15T12:44:07;13.90;46.50
3037;DHT22;1528;52.550;13.408;2023-04-15T12:46:53;13.80;45.30
3037;DHT22;1528;52.550;13.408;2023-04-15T12:49:40;13.80;45.40
3037;DHT22;1528;52.550;13.408;2023-04-15T12:52:25;13.80;45.60
3037;DHT22;1528;52.550;13.408;2023-04-15T12:55:11;13.80;46.00
3037;DHT22;1528;52.550;13.408;2023-04-15T12:57:57;13.80;46.20
3037;DHT22;1528;52.550;13.408;2023-04-15T13:00:43;13.80;46.60
3037;DHT22;1528;52.550;13.408;2023-04-15T13:03:28;13.90;46.40
3037;DHT22;1528;52.550;13.408;2023-04-15T13:06:15;14.00;44.70
3037;DHT22;1528;52.550;13.408;2023-04-15T13:09:02;13.90;45.70
3037;DHT22;1528;52.550;13.408;2023-04-15T13:11:48;13.90;45.30
3037;DHT22;1528;52.550;13.408;2023-04-15T13:14:35;14.10;46.10
3037;DHT22;1528;52.550;13.408;2023-04-15T13:17:21;14.10;45.20
3037;DHT22;1528;52.550;13.408;2023-04-15T13:20:07;14.20;44.40
3037;DHT22;1528;52.550;13.408;2023-04-15T13:22:54;14.10;44.30
3037;DHT22;1528;52.550;13.408;2023-04-15T13:25:40;14.10;45.50
3037;DHT22;1528;52.550;13.408;2023-04-15T13:28:25;14.00;44.30
3037;DHT22;1528;52.550;13.408;2023-04-15T13:31:11;13.90;44.80
3037;DHT22;1528;52.550;13.408;2023-04-15T13:33:57;13.80;44.80
3037;DHT22;1528;52.550;13.408;2023-04-15T13:36:43;13.70;44.70
3037;DHT22;1528;52.550;13.408;2023-04-15T13:39:30;13.70;44.90
3037;DHT22;1528;52.550;13.408;2023-04-15T13:42:16;13.70;44.70
3037;DHT22;1528;52.550;13.408;2023-04-15T13:45:02;13.70;44.30
3037;DHT22;1528;52.550;13.408;2023-04-15T13:47:48;13.70;44.70
3037;DHT22;1528;52.550;13.408;2023-04-15T13:50:33;13.70;45.00
3037;DHT22;1528;52.550;13.408;2023-04-15T13:53:19;13.70;45.60
3037;DHT22;1528;52.550;13.408;2023-04-15T13:56:07;13.50;46.00
3037;DHT22;1528;52.550;13.408;2023-04-15T13:58:53;13.50;46.10
3037;DHT22;1528;52.550;13.408;2023-04-15T14:01:41;13.60;46.20
3037;DHT22;1528;52.550;13.408;2023-04-15T14:04:28;13.50;46.30
3037;DHT22;1528;52.550;13.408;2023-04-15T14:07:13;13.50;46.50
3037;DHT22;1528;52.550;13.408;2023-04-15T14:09:59;13.40;46.10
3037;DHT22;1528;52.550;13.408;2023-04-15T14:12:46;13.50;45.50
3037;DHT22;1528;52.550;13.408;2023-04-15T14:15:32;13.60;44.80
3037;DHT22;1528;52.550;13.408;2023-04-15T14:18:18;13.60;44.70
3037;DHT22;1528;52.550;13.408;2023-04-15T14:21:05;13.60;44.50
3037;DHT22;1528;52.550;13.408;2023-04-15T14:23:50;13.50;45.10
3037;DHT22;1528;52.550;13.408;2023-04-15T14:26:36;13.50;45.70
3037;DHT22;1528;52.550;13.408;2023-04-15T14:29:23;13.50;46.40
3037;DHT22;1528;52.550;13.408;2023-04-15T14:32:09;13.50;46.60
3037;DHT22;1528;52.550;13.408;2023-04-15T14:34:55;13.50;46.20
3037;DHT22;1528;52.550;13.408;2023-04-15T14:37:41;13.50;47.30
3037;DHT22;1528;52.550;13.408;2023-04-15T14:40:26;13.40;46.70
3037;DHT22;1528;52.550;13.408;2023-04-15T14:43:12;13.40;47.60
3037;DHT22;1528;52.550;13.408;2023-04-15T14:45:59;13.40;48.00
3037;DHT22;1528;52.550;13.408;2023-04-15T14:48:45;13.50;47.60
3037;DHT22;1528;52.550;13.408;2023-04-15T14:51:31;13.50;48.80
3037;DHT22;1528;52.550;13.408;2023-04-15T14:54:16;13.50;47.90
3037;DHT22;1528;52.550;13.408;2023-04-15T14:57:02;13.50;48.60
3037;DHT22;1528;52.550;13.408;2023-04-15T14:59:48;13.40;48.60
3037;DHT22;1528;52.550;13.408;2023-04-15T15:02:41;13.40;47.70
3037;DHT22;1528;52.550;13.408;2023-04-15T15:05:26;13.50;49.30
3037;DHT22;1528;52.550;13.408;2023-04-15T15:08:12;13.30;48.00
3037;DHT22;1528;52.550;13.408;2023-04-15T15:10:58;13.30;48.50
3037;DHT22;1528;52.550;13.408;2023-04-15T15:13:44;13.40;49.50
3037;DHT22;1528;52.550;13.408;2023-04-15T15:16:29;13.40;47.60
3037;DHT22;1528;52.550;13.408;2023-04-15T15:19:16;13.30;47.90
3037;DHT22;1528;52.550;13.408;2023-04-15T15:22:02;13.30;48.20
3037;DHT22;1528;52.550;13.408;2023-04-15T15:24:48;13.30;47.80
3037;DHT22;1528;52.550;13.408;2023-04-15T15:27:34;13.30;47.90
3037;DHT22;1528;52.550;13.408;2023-04-15T15:30:19;13.30;49.10
3037;DHT22;1528;52.550;13.408;2023-04-15T15:33:05;13.30;48.80
3037;DHT22;1528;52.550;13.408;2023-04-15T15:35:52;13.30;47.60
3037;DHT22;1528;52.550;13.408;2023-04-15T15:38:39;13.30;47.50
3037;DHT22;1528;52.550;13.408;2023-04-15T15:41:25;13.20;48.20
3037;DHT22;1528;52.550;13.408;2023-04-15T15:44:10;13.20;48.10
3037;DHT22;1528;52.550;13.408;2023-04-15T15:46:56;13.20;48.90
3037;DHT22;1528;52.550;13.408;2023-04-15T15:49:42;13.10;48.70
3037;DHT22;1528;52.550;13.408;2023-04-15T15:52:29;13.00;49.60
3037;DHT22;1528;52.550;13.408;2023-04-15T15:55:14;13.10;48.50
3037;DHT22;1528;52.550;13.408;2023-04-15T15:58:00;13.10;48.40
3037;DHT22;1528;52.550;13.408;2023-04-15T16:00:46;13.10;48.60
3037;DHT22;1528;52.550;13.408;2023-04-15T16:03:31;13.00;48.80
3037;DHT22;1528;52.550;13.408;2023-04-15T16:06:17;13.00;48.70
3037;DHT22;1528;52.550;13.408;2023-04-15T16:09:04;12.90;49.30
3037;DHT22;1528;52.550;13.408;2023-04-15T16:11:50;12.90;48.60
3037;DHT22;1528;52.550;13.408;2023-04-15T16:14:35;13.00;48.80
3037;DHT22;1528;52.550;13.408;2023-04-15T16:17:21;13.00;48.60
3037;DHT22;1528;52.550;13.408;2023-04-15T16:20:07;13.00;48.50
3037;DHT22;1528;52.550;13.408;2023-04-15T16:22:55;12.90;48.30
3037;DHT22;1528;52.550;13.408;2023-04-15T16:25:43;12.80;49.50
3037;DHT22;1528;52.550;13.408;2023-04-15T16:28:29;12.90;48.70
3037;DHT22;1528;52.550;13.408;2023-04-15T16:31:14;12.90;49.10
3037;DHT22;1528;52.550;13.408;2023-04-15T16:34:01;12.70;49.40
3037;DHT22;1528;52.550;13.408;2023-04-15T16:36:47;12.70;50.10
3037;DHT22;1528;52.550;13.408;2023-04-15T16:39:32;12.80;49.60
3037;DHT22;1528;52.550;13.408;2023-04-15T16:42:20;12.90;49.50
3037;DHT22;1528;52.550;13.408;2023-04-15T16:45:06;12.90;49.40
3037;DHT22;1528;52.550;13.408;2023-04-15T16:47:51;12.90;49.20
3037;DHT22;1528;52.550;13.408;2023-04-15T16:50:37;13.00;48.70
3037;DHT22;1528;52.550;13.408;2023-04-15T16:53:23;13.00;48.50
3037;DHT22;1528;52.550;13.408;2023-04-15T16:56:08;12.90;48.80
3037;DHT22;1528;52.550;13.408;2023-04-15T16:58:56;12.80;49.10
3037;DHT22;1528;52.550;13.408;2023-04-15T17:01:41;12.80;49.50
3037;DHT22;1528;52.550;13.408;2023-04-15T17:04:27;12.80;49.00
3037;DHT22;1528;52.550;13.408;2023-04-15T17:07:13;12.90;48.90
3037;DHT22;1528;52.550;13.408;2023-04-15T17:09:58;12.90;49.00
3037;DHT22;1528;52.550;13.408;2023-04-15T17:12:44;12.90;48.90
3037;DHT22;1528;52.550;13.408;2023-04-15T17:15:31;13.00;48.90
3037;DHT22;1528;52.550;13.408;2023-04-15T17:18:16;12.90;48.70
3037;DHT22;1528;52.550;13.408;2023-04-15T17:21:02;12.90;49.10
3037;DHT22;1528;52.550;13.408;2023-04-15T17:23:50;12.90;49.30
3037;DHT22;1528;52.550;13.408;2023-04-15T17:26:36;12.90;48.90
3037;DHT22;1528;52.550;13.408;2023-04-15T17:29:22;12.90;48.80
3037;DHT22;1528;52.550;13.408;2023-04-15T17:32:09;12.90;49.10
3037;DHT22;1528;52.550;13.408;2023-04-15T17:34:54;12.80;48.90
3037;DHT22;1528;52.550;13.408;2023-04-15T17:37:40;12.80;49.30
3037;DHT22;1528;52.550;13.408;2023-04-15T17:40:26;12.70;49.90
3037;DHT22;1528;52.550;13.408;2023-04-15T17:43:11;12.80;49.70
3037;DHT22;1528;52.550;13.408;2023-04-15T17:45:57;12.80;50.30
3037;DHT22;1528;52.550;13.408;2023-04-15T17:48:45;12.90;49.20